WAOO/BDJ METAR and TAF weather

Enter ICAO airport designator
Station Type Date Time Source
WAOO METAR 2019/10/23 18:00 UTC NOAA

WAOO 231800Z AUTO 24003KT 1000 R10/P2000N R28/P2000N BR VV005 23/21 Q1008


Station Type Date Time Source
WAOO Decoded METAR 2019/10/23 18:00 UTC NOAA

Station name not available
Oct 23, 2019 - 02:00 PM EDT / 2019.10.23 1800 UTC
Wind: from the WSW (240 degrees) at 3 MPH (3 KT):0
Visibility: less than 1 mile:0
Sky conditions: obscured
Weather: mist
Temperature: 73 F (23 C)
Dew Point: 69 F (21 C)
Relative Humidity: 88%
Pressure (altimeter): 29.77 in. Hg (1008 hPa)
ob: WAOO 231800Z AUTO 24003KT 1000 R10/P2000N R28/P2000N BR VV005 23/21 Q1008
cycle: 18

Station Type Date Time Source
WAOO TAF 2019/10/23 18:40 UTC NOAA

TAF WAOO 231700Z 2318/2418 12007KT 9999 FEW020
TEMPO 2320/2324 3000 FU PROB30
TEMPO 2407/2409 7000 RA

Example: see airport list